Time;durP1;ratioP1;P1;durP2;ratioP2;P2;SDS_P1;SDS_P2;PMS_P1;PMS_P2;Temp;Humidity;BMP_temperature;BMP_pressure;BME280_temperature;BME280_humidity;BME280_pressure;Samples;Min_cycle;Max_cycle;Signal;HPM_P1;HPM_P2
2023/05/13 00:00:42;;;;;;;12.60;11.33;;;17.40;40.80;;;;;;5091039;28;20195;-54
2023/05/13 00:03:07;;;;;;;13.07;11.87;;;17.40;40.60;;;;;;5092208;28;20966;-54
2023/05/13 00:05:33;;;;;;;14.40;10.97;;;17.40;40.60;;;;;;5092777;28;20448;-54
2023/05/13 00:08:01;;;;;;;13.00;11.80;;;17.30;40.60;;;;;;5092680;28;20167;-54
2023/05/13 00:10:27;;;;;;;13.43;12.15;;;17.30;40.60;;;;;;5092228;28;20195;-55
2023/05/13 00:12:52;;;;;;;11.53;10.43;;;17.30;40.50;;;;;;5092401;28;20576;-54
2023/05/13 00:15:18;;;;;;;12.00;10.17;;;17.30;40.80;;;;;;5092295;28;20202;-54
2023/05/13 00:17:44;;;;;;;10.53;9.47;;;17.20;40.80;;;;;;5090844;28;20167;-54
2023/05/13 00:20:10;;;;;;;11.70;10.55;;;17.20;40.70;;;;;;5091878;28;20430;-53
2023/05/13 00:22:36;;;;;;;15.70;10.33;;;17.20;40.40;;;;;;5092341;28;20232;-54
2023/05/13 00:25:02;;;;;;;11.13;9.97;;;17.10;40.70;;;;;;5091701;28;20398;-54
2023/05/13 00:27:28;;;;;;;10.95;9.95;;;17.10;40.70;;;;;;5092129;28;20698;-53
2023/05/13 00:29:54;;;;;;;12.70;11.20;;;17.00;40.80;;;;;;5091757;28;20200;-53
2023/05/13 00:32:20;;;;;;;13.18;10.18;;;16.90;40.80;;;;;;5091930;28;20649;-54
2023/05/13 00:34:46;;;;;;;9.73;8.83;;;16.90;40.90;;;;;;5091034;28;20185;-53
2023/05/13 00:37:13;;;;;;;10.83;9.83;;;16.80;41.10;;;;;;5092040;28;20627;-53
2023/05/13 00:39:38;;;;;;;9.30;8.50;;;16.80;41.10;;;;;;5091914;28;20223;-54
2023/05/13 00:42:04;;;;;;;10.70;9.77;;;16.80;40.80;;;;;;5090682;28;20687;-53
2023/05/13 00:44:30;;;;;;;10.88;9.77;;;16.70;40.80;;;;;;5092187;28;20168;-53
2023/05/13 00:46:56;;;;;;;11.77;10.67;;;16.70;41.00;;;;;;5092079;28;20182;-54
2023/05/13 00:49:22;;;;;;;12.57;11.17;;;16.60;40.80;;;;;;5091662;28;20175;-54
2023/05/13 00:51:49;;;;;;;12.40;11.17;;;16.60;40.60;;;;;;5091876;28;20489;-54
2023/05/13 00:54:15;;;;;;;12.60;11.50;;;16.60;40.70;;;;;;5092132;28;20597;-53
2023/05/13 00:56:41;;;;;;;13.90;12.70;;;16.60;40.90;;;;;;5092146;28;20221;-54
2023/05/13 00:59:07;;;;;;;17.33;15.30;;;16.50;41.20;;;;;;5091680;28;20560;-53
2023/05/13 01:01:46;;;;;;;18.33;15.70;;;16.40;41.30;;;;;;5091342;28;20231;-54
2023/05/13 01:04:36;;;;;;;20.17;18.27;;;16.30;41.20;;;;;;5091801;28;20386;-54
2023/05/13 01:07:13;;;;;;;30.15;27.27;;;16.40;41.30;;;;;;5092041;28;20191;-54
2023/05/13 01:10:03;;;;;;;35.65;32.45;;;16.30;41.30;;;;;;5091301;28;20188;-53
2023/05/13 01:12:45;;;;;;;36.78;33.08;;;16.20;41.20;;;;;;5091890;28;20172;-53
2023/05/13 01:15:20;;;;;;;26.30;24.00;;;16.20;41.30;;;;;;5091819;28;20662;-53
2023/05/13 01:18:05;;;;;;;20.88;18.90;;;16.20;41.40;;;;;;5091627;28;20215;-54
2023/05/13 01:20:33;;;;;;;17.50;15.90;;;16.20;41.20;;;;;;5091739;28;20207;-53
2023/05/13 01:22:59;;;;;;;13.50;12.10;;;16.10;41.40;;;;;;5091824;28;20221;-54
2023/05/13 01:25:25;;;;;;;11.87;10.90;;;16.10;41.30;;;;;;5091677;28;20172;-54
2023/05/13 01:27:52;;;;;;;10.70;9.60;;;16.00;41.30;;;;;;5091918;28;20176;-53
2023/05/13 01:30:19;;;;;;;11.70;10.60;;;16.00;41.40;;;;;;5089871;28;20671;-53
2023/05/13 01:32:45;;;;;;;10.00;9.00;;;16.00;41.40;;;;;;5091410;28;20229;-54
2023/05/13 01:35:12;;;;;;;9.55;8.55;;;16.00;41.50;;;;;;5091708;28;20203;-54
2023/05/13 01:37:39;;;;;;;9.60;8.65;;;15.90;41.50;;;;;;5093282;28;20176;-53
2023/05/13 01:40:06;;;;;;;10.10;9.10;;;15.90;41.40;;;;;;5094763;28;20248;-53
2023/05/13 01:42:34;;;;;;;10.73;9.73;;;15.90;41.30;;;;;;5093800;28;20290;-53
2023/05/13 01:45:00;;;;;;;11.45;9.85;;;15.90;41.10;;;;;;5094962;28;20167;-54
2023/05/13 01:47:26;;;;;;;10.95;9.80;;;15.90;41.20;;;;;;5094843;28;20179;-54
2023/05/13 01:49:52;;;;;;;10.35;9.25;;;15.80;41.70;;;;;;5094802;28;20187;-54
2023/05/13 01:52:18;;;;;;;10.77;9.70;;;15.80;41.00;;;;;;5094766;28;20649;-54
2023/05/13 01:54:43;;;;;;;12.93;9.03;;;15.80;41.00;;;;;;5094839;28;20244;-53
2023/05/13 01:57:09;;;;;;;10.20;9.20;;;15.70;41.10;;;;;;5094675;28;20207;-54
2023/05/13 01:59:35;;;;;;;11.20;10.00;;;15.70;41.30;;;;;;5094340;28;20172;-53
2023/05/13 02:02:00;;;;;;;10.60;9.57;;;15.70;41.10;;;;;;5094497;28;20202;-52
2023/05/13 02:04:27;;;;;;;11.33;10.20;;;15.70;40.90;;;;;;5094772;28;20172;-54
2023/05/13 02:06:53;;;;;;;10.93;9.90;;;15.70;40.80;;;;;;5093309;28;20196;-54
2023/05/13 02:09:18;;;;;;;11.60;9.90;;;15.60;40.90;;;;;;5094317;28;20207;-54
2023/05/13 02:11:45;;;;;;;9.80;8.90;;;15.60;40.90;;;;;;5094397;28;20856;-51
2023/05/13 02:14:11;;;;;;;10.77;8.32;;;15.50;41.00;;;;;;5094389;28;20176;-54
2023/05/13 02:16:37;;;;;;;10.43;9.45;;;15.40;41.00;;;;;;5094257;28;20541;-53
2023/05/13 02:19:03;;;;;;;10.97;9.87;;;15.30;41.20;;;;;;5094560;28;20180;-54
2023/05/13 02:21:28;;;;;;;10.20;9.20;;;15.30;41.20;;;;;;5092768;28;20481;-54
2023/05/13 02:23:55;;;;;;;10.00;9.00;;;15.20;41.20;;;;;;5094337;28;20492;-53
2023/05/13 02:26:21;;;;;;;9.70;8.80;;;15.20;41.20;;;;;;5094254;28;20504;-54
2023/05/13 02:28:47;;;;;;;10.88;8.82;;;15.20;41.00;;;;;;5094108;28;20199;-51
2023/05/13 02:31:12;;;;;;;9.35;8.27;;;15.20;41.10;;;;;;5093994;28;20184;-51
2023/05/13 02:33:38;;;;;;;9.87;8.87;;;15.20;41.10;;;;;;5094032;28;20164;-52
2023/05/13 02:36:04;;;;;;;10.50;9.50;;;15.20;41.10;;;;;;5094262;28;20763;-51
2023/05/13 02:38:30;;;;;;;10.70;9.67;;;15.10;41.20;;;;;;5093961;28;20530;-52
2023/05/13 02:40:55;;;;;;;10.03;9.03;;;15.10;41.20;;;;;;5093584;28;20509;-52
2023/05/13 02:43:23;;;;;;;8.90;8.00;;;15.10;41.10;;;;;;5093968;28;20211;-51
2023/05/13 02:45:49;;;;;;;11.07;8.75;;;15.00;41.00;;;;;;5093668;28;20626;-52
2023/05/13 02:48:15;;;;;;;9.53;8.63;;;15.00;41.00;;;;;;5093368;28;20183;-51
2023/05/13 02:50:41;;;;;;;14.60;9.77;;;15.00;41.00;;;;;;5093609;28;20455;-53
2023/05/13 02:53:06;;;;;;;9.97;8.97;;;15.00;41.20;;;;;;5093694;28;20775;-53
2023/05/13 02:55:32;;;;;;;10.23;9.20;;;14.90;41.30;;;;;;5093468;28;20772;-52
2023/05/13 02:57:58;;;;;;;9.63;8.40;;;14.80;41.30;;;;;;5093497;28;20175;-53
2023/05/13 03:00:24;;;;;;;9.60;8.70;;;14.80;41.40;;;;;;5093149;28;20281;-52
2023/05/13 03:02:49;;;;;;;11.20;10.10;;;14.70;41.40;;;;;;5093395;28;20196;-51
2023/05/13 03:05:15;;;;;;;10.10;9.10;;;14.70;41.50;;;;;;5093552;28;20180;-52
2023/05/13 03:07:41;;;;;;;10.17;9.27;;;14.70;41.70;;;;;;5093385;28;20217;-53
2023/05/13 03:10:07;;;;;;;9.50;8.60;;;14.60;41.50;;;;;;5093137;28;20238;-53
2023/05/13 03:12:33;;;;;;;10.13;9.23;;;14.60;41.50;;;;;;5093301;28;20733;-52
2023/05/13 03:14:59;;;;;;;9.88;9.05;;;14.60;41.50;;;;;;5093121;28;20180;-51
2023/05/13 03:17:25;;;;;;;9.20;8.30;;;14.60;41.20;;;;;;5093209;28;20175;-51
2023/05/13 03:19:51;;;;;;;9.37;8.47;;;14.60;41.40;;;;;;5092779;28;20249;-51
2023/05/13 03:22:17;;;;;;;9.70;8.20;;;14.60;41.00;;;;;;5093056;28;20191;-51
2023/05/13 03:24:43;;;;;;;13.03;8.40;;;14.60;40.80;;;;;;5093039;28;20529;-50
2023/05/13 03:27:09;;;;;;;9.88;8.95;;;14.60;41.00;;;;;;5093138;28;20760;-51
2023/05/13 03:29:34;;;;;;;9.23;8.33;;;14.60;41.30;;;;;;5092641;28;20172;-53
2023/05/13 03:32:00;;;;;;;8.37;7.57;;;14.50;41.40;;;;;;5092878;28;20406;-50
2023/05/13 03:34:26;;;;;;;8.93;8.03;;;14.50;41.30;;;;;;5093132;28;20171;-51
2023/05/13 03:36:52;;;;;;;10.07;9.13;;;14.40;41.40;;;;;;5093071;28;20767;-53
2023/05/13 03:39:18;;;;;;;9.40;8.30;;;14.40;41.50;;;;;;5092522;28;20172;-52
2023/05/13 03:41:44;;;;;;;9.07;8.17;;;14.40;41.60;;;;;;5092436;28;20461;-52
2023/05/13 03:44:10;;;;;;;10.85;8.32;;;14.40;41.80;;;;;;5092641;28;20194;-53
2023/05/13 03:46:36;;;;;;;9.40;8.53;;;14.40;41.60;;;;;;5092881;28;20168;-54
2023/05/13 03:49:02;;;;;;;9.07;8.10;;;14.40;41.90;;;;;;5092954;28;20824;-52
2023/05/13 03:51:27;;;;;;;9.23;8.27;;;14.40;41.90;;;;;;5092490;28;20194;-50
2023/05/13 03:53:53;;;;;;;9.13;8.33;;;14.40;42.20;;;;;;5092856;28;20184;-53
2023/05/13 03:56:20;;;;;;;10.50;9.10;;;14.40;41.90;;;;;;5092673;28;20175;-52
2023/05/13 03:58:46;;;;;;;13.38;7.75;;;14.50;42.00;;;;;;5092288;28;20172;-50
2023/05/13 04:01:11;;;;;;;9.60;8.70;;;14.40;42.30;;;;;;5091522;28;20207;-52
2023/05/13 04:03:37;;;;;;;10.77;9.03;;;14.40;42.40;;;;;;5092393;28;20255;-53
2023/05/13 04:06:03;;;;;;;9.10;8.30;;;14.50;42.50;;;;;;5092383;28;20398;-50
2023/05/13 04:08:29;;;;;;;10.00;9.10;;;14.50;42.40;;;;;;5091400;28;20172;-51
2023/05/13 04:10:56;;;;;;;9.90;8.57;;;14.50;42.60;;;;;;5091947;28;20444;-53
2023/05/13 04:13:22;;;;;;;9.25;8.25;;;14.60;42.80;;;;;;5092336;28;20310;-50
2023/05/13 04:15:47;;;;;;;9.17;8.30;;;14.60;42.90;;;;;;5092346;28;20209;-50
2023/05/13 04:18:13;;;;;;;12.63;8.90;;;14.70;42.80;;;;;;5092383;28;20203;-52
2023/05/13 04:20:39;;;;;;;10.53;9.00;;;14.70;42.70;;;;;;5092249;28;20198;-50
2023/05/13 04:23:05;;;;;;;8.32;7.53;;;14.80;42.80;;;;;;5092265;28;20467;-52
2023/05/13 04:25:31;;;;;;;10.52;9.50;;;14.90;42.90;;;;;;5091177;28;20222;-51
2023/05/13 04:27:57;;;;;;;10.20;9.18;;;15.00;43.00;;;;;;5092229;28;20164;-52
2023/05/13 04:30:23;;;;;;;9.77;8.77;;;15.00;42.90;;;;;;5092241;28;20241;-51
2023/05/13 04:32:49;;;;;;;9.20;8.30;;;15.10;43.00;;;;;;5092166;28;20415;-52
2023/05/13 04:35:15;;;;;;;8.10;7.27;;;15.20;43.00;;;;;;5092471;28;20425;-53
2023/05/13 04:37:41;;;;;;;9.85;8.32;;;15.30;42.90;;;;;;5090838;28;20209;-51
2023/05/13 04:40:07;;;;;;;8.40;7.10;;;15.40;42.80;;;;;;5091788;28;20199;-50
2023/05/13 04:42:33;;;;;;;7.75;6.95;;;15.50;42.80;;;;;;5092115;28;20238;-52
2023/05/13 04:44:59;;;;;;;11.53;6.77;;;15.60;42.80;;;;;;5092313;28;20180;-51
2023/05/13 04:47:25;;;;;;;7.87;7.07;;;15.60;42.70;;;;;;5091941;28;20410;-51
2023/05/13 04:49:51;;;;;;;8.33;6.40;;;15.70;42.70;;;;;;5091811;28;20196;-54
2023/05/13 04:52:17;;;;;;;7.33;6.63;;;15.90;42.70;;;;;;5092038;28;20171;-51
2023/05/13 04:54:42;;;;;;;8.30;7.47;;;16.00;42.40;;;;;;5091805;28;20406;-51
2023/05/13 04:57:08;;;;;;;6.90;6.30;;;16.10;42.40;;;;;;5090626;28;21010;-51
2023/05/13 04:59:34;;;;;;;7.37;6.67;;;16.20;42.10;;;;;;5091862;28;20168;-53
2023/05/13 05:02:00;;;;;;;9.17;7.60;;;16.20;42.00;;;;;;5091923;28;20450;-52
2023/05/13 05:04:27;;;;;;;10.40;8.33;;;16.30;42.10;;;;;;5092188;28;20165;-51
2023/05/13 05:06:53;;;;;;;6.40;5.80;;;16.50;41.80;;;;;;5091882;28;21186;-50
2023/05/13 05:09:19;;;;;;;6.53;6.00;;;16.50;41.80;;;;;;5092403;28;20526;-51
2023/05/13 05:11:45;;;;;;;6.77;6.23;;;16.60;41.50;;;;;;5094660;28;20433;-51
2023/05/13 05:14:10;;;;;;;8.05;7.05;;;16.60;41.20;;;;;;5096745;28;20903;-51
2023/05/13 05:16:36;;;;;;;7.73;6.93;;;16.70;41.40;;;;;;5096467;28;20271;-56
2023/05/13 05:19:02;;;;;;;9.20;6.53;;;16.80;41.30;;;;;;5096571;28;20200;-52
2023/05/13 05:21:28;;;;;;;6.73;5.90;;;16.90;41.10;;;;;;5096210;28;20863;-53
2023/05/13 05:23:54;;;;;;;8.23;6.13;;;16.90;40.40;;;;;;5096504;28;20175;-53
2023/05/13 05:26:21;;;;;;;7.40;6.60;;;16.90;40.80;;;;;;5096241;28;20634;-55
2023/05/13 05:28:47;;;;;;;7.72;6.75;;;16.90;40.40;;;;;;5096434;28;20410;-52
2023/05/13 05:31:13;;;;;;;9.60;6.60;;;16.90;40.60;;;;;;5095591;28;20192;-53
2023/05/13 05:33:40;;;;;;;7.95;7.15;;;17.00;40.70;;;;;;5096212;28;20398;-54
2023/05/13 05:36:06;;;;;;;6.60;6.00;;;17.20;40.20;;;;;;5095991;28;20637;-55
2023/05/13 05:38:32;;;;;;;7.45;6.75;;;17.30;40.10;;;;;;5096146;28;20233;-53
2023/05/13 05:40:58;;;;;;;9.27;7.63;;;17.40;40.10;;;;;;5095720;28;20599;-52
2023/05/13 05:43:24;;;;;;;6.77;6.07;;;17.50;40.20;;;;;;5095718;28;20447;-54
2023/05/13 05:45:50;;;;;;;7.55;5.85;;;17.60;40.00;;;;;;5095770;28;20410;-54
2023/05/13 05:48:16;;;;;;;7.03;6.38;;;17.80;39.80;;;;;;5096083;28;20172;-52
2023/05/13 05:50:41;;;;;;;8.70;7.17;;;18.00;40.00;;;;;;5095911;28;20204;-52
2023/05/13 05:53:07;;;;;;;7.43;6.60;;;18.10;39.20;;;;;;5095692;28;20293;-54
2023/05/13 05:55:33;;;;;;;7.07;6.30;;;18.30;39.20;;;;;;5096061;28;20172;-52
2023/05/13 05:58:04;;;;;;;11.70;7.57;;;18.40;39.20;;;;;;5096201;28;20592;-52
2023/05/13 06:00:30;;;;;;;9.02;6.53;;;18.60;38.70;;;;;;5095487;28;20425;-55
2023/05/13 06:02:56;;;;;;;7.68;6.88;;;18.60;38.40;;;;;;5095806;28;20196;-54
2023/05/13 06:05:22;;;;;;;6.68;6.07;;;18.70;38.40;;;;;;5095230;28;20179;-53
2023/05/13 06:07:48;;;;;;;7.53;6.93;;;18.80;38.40;;;;;;5094583;28;20172;-54
2023/05/13 06:10:14;;;;;;;10.63;6.83;;;18.90;38.10;;;;;;5094189;28;20226;-52
2023/05/13 06:12:40;;;;;;;7.90;6.30;;;19.00;37.80;;;;;;5094482;28;20542;-52
2023/05/13 06:15:09;;;;;;;6.45;5.85;;;19.10;37.30;;;;;;5094715;28;20180;-52
2023/05/13 06:17:38;;;;;;;7.25;6.30;;;19.10;37.60;;;;;;5094305;28;20179;-54
2023/05/13 06:20:05;;;;;;;7.07;6.43;;;19.30;37.60;;;;;;5093903;28;20306;-51
2023/05/13 06:22:31;;;;;;;6.95;5.82;;;19.30;36.40;;;;;;5093562;28;20208;-51
2023/05/13 06:24:56;;;;;;;8.00;6.47;;;19.30;36.90;;;;;;5094492;28;20179;-55
2023/05/13 06:27:22;;;;;;;6.20;5.60;;;19.30;36.90;;;;;;5094291;28;20410;-54
2023/05/13 06:29:48;;;;;;;6.27;5.60;;;19.40;36.70;;;;;;5093933;28;20192;-53
2023/05/13 06:32:14;;;;;;;9.20;6.57;;;19.50;36.30;;;;;;5094136;28;20780;-54
2023/05/13 06:34:44;;;;;;;6.10;5.50;;;19.50;36.50;;;;;;5094008;28;20168;-54
2023/05/13 06:37:13;;;;;;;6.35;5.72;;;19.60;36.30;;;;;;5093992;28;20192;-53
2023/05/13 06:39:39;;;;;;;8.63;6.32;;;19.70;36.00;;;;;;5093578;28;20229;-54
2023/05/13 06:42:05;;;;;;;8.33;5.77;;;19.90;36.50;;;;;;5093820;28;20595;-54
2023/05/13 06:44:31;;;;;;;5.90;5.30;;;19.90;36.30;;;;;;5094070;28;20399;-52
2023/05/13 06:46:56;;;;;;;7.00;4.90;;;20.10;35.70;;;;;;5093603;28;20398;-54
2023/05/13 06:49:25;;;;;;;6.17;5.57;;;20.20;36.20;;;;;;5093702;28;20451;-54
2023/05/13 06:51:51;;;;;;;6.00;4.38;;;20.40;36.10;;;;;;5094941;28;20541;-51
2023/05/13 06:54:17;;;;;;;6.53;4.97;;;20.60;35.40;;;;;;5095374;28;20633;-54
2023/05/13 06:56:42;;;;;;;6.10;5.60;;;20.70;35.00;;;;;;5095630;28;20529;-55
2023/05/13 06:59:08;;;;;;;5.80;5.20;;;20.90;34.90;;;;;;5094749;28;20175;-54
2023/05/13 07:01:34;;;;;;;4.53;4.07;;;20.90;35.30;;;;;;5094382;28;20741;-51
2023/05/13 07:04:00;;;;;;;4.20;3.80;;;21.10;34.20;;;;;;5094378;28;20413;-52
2023/05/13 07:06:25;;;;;;;5.23;4.00;;;21.20;33.60;;;;;;5095223;28;20740;-52
2023/05/13 07:08:51;;;;;;;6.20;5.60;;;21.30;32.40;;;;;;5095058;28;20494;-54
2023/05/13 07:11:17;;;;;;;5.33;4.40;;;21.30;33.00;;;;;;5094463;28;20198;-55
2023/05/13 07:13:43;;;;;;;4.60;4.20;;;21.30;32.70;;;;;;5094383;28;20217;-54
2023/05/13 07:16:09;;;;;;;5.15;4.07;;;21.30;31.60;;;;;;5094727;28;20247;-51
2023/05/13 07:18:35;;;;;;;5.05;4.55;;;21.30;33.00;;;;;;5093911;28;20175;-55
2023/05/13 07:21:00;;;;;;;3.90;3.50;;;21.40;33.60;;;;;;5093385;28;20192;-50
2023/05/13 07:23:26;;;;;;;5.20;3.97;;;21.50;31.90;;;;;;5093639;28;20220;-52
2023/05/13 07:25:52;;;;;;;5.87;4.80;;;21.60;32.10;;;;;;5093652;28;20168;-52
2023/05/13 07:28:21;;;;;;;5.20;3.90;;;21.70;32.50;;;;;;5092746;28;20203;-51
2023/05/13 07:30:47;;;;;;;3.90;3.60;;;21.80;32.20;;;;;;5093118;28;20541;-53
2023/05/13 07:33:13;;;;;;;4.60;4.20;;;22.00;32.10;;;;;;5092728;28;20646;-53
2023/05/13 07:35:38;;;;;;;6.93;5.40;;;22.10;31.60;;;;;;5093112;28;20176;-53
2023/05/13 07:38:07;;;;;;;4.60;4.10;;;22.10;31.40;;;;;;5092331;28;20176;-54
2023/05/13 07:40:33;;;;;;;4.03;3.35;;;22.10;31.00;;;;;;5092198;28;20286;-54
2023/05/13 07:42:59;;;;;;;3.93;3.63;;;22.20;31.50;;;;;;5093522;28;20286;-55
2023/05/13 07:45:25;;;;;;;3.63;3.33;;;22.20;31.50;;;;;;5093495;28;20217;-54
2023/05/13 07:47:51;;;;;;;4.67;3.80;;;22.30;32.30;;;;;;5093744;28;20539;-53
2023/05/13 07:50:17;;;;;;;7.53;4.50;;;22.40;31.30;;;;;;5092974;28;20951;-52
2023/05/13 07:52:43;;;;;;;5.57;4.17;;;22.60;31.80;;;;;;5092494;28;20170;-51
2023/05/13 07:55:09;;;;;;;4.80;4.17;;;22.80;30.60;;;;;;5093080;28;20418;-56
2023/05/13 07:57:35;;;;;;;4.00;3.60;;;22.70;29.20;;;;;;5093243;28;20410;-52
2023/05/13 08:00:01;;;;;;;4.13;3.67;;;22.60;30.80;;;;;;5092752;28;20789;-52
2023/05/13 08:02:27;;;;;;;3.73;3.43;;;22.80;31.30;;;;;;5093306;28;20477;-54
2023/05/13 08:04:53;;;;;;;4.23;3.50;;;22.90;29.60;;;;;;5093494;28;20457;-56
2023/05/13 08:07:19;;;;;;;3.97;3.67;;;23.10;30.00;;;;;;5092975;28;20738;-54
2023/05/13 08:09:45;;;;;;;6.53;3.17;;;23.20;29.80;;;;;;5092315;28;20475;-53
2023/05/13 08:12:11;;;;;;;3.93;3.43;;;23.30;29.20;;;;;;5092482;28;20209;-50
2023/05/13 08:14:38;;;;;;;3.67;3.37;;;23.40;28.70;;;;;;5092434;28;20555;-51
2023/05/13 08:17:06;;;;;;;4.63;3.93;;;23.50;27.40;;;;;;5092329;28;20405;-54
2023/05/13 08:19:31;;;;;;;4.10;3.70;;;23.50;28.50;;;;;;5092037;28;20184;-54
2023/05/13 08:21:57;;;;;;;4.37;3.77;;;23.60;28.70;;;;;;5092241;28;20457;-52
2023/05/13 08:24:23;;;;;;;5.03;2.93;;;23.60;28.00;;;;;;5092346;28;20168;-51
2023/05/13 08:26:49;;;;;;;3.50;3.20;;;23.70;28.20;;;;;;5092038;28;20233;-54
2023/05/13 08:29:14;;;;;;;4.80;4.40;;;23.70;26.80;;;;;;5091813;28;20259;-52
2023/05/13 08:31:41;;;;;;;4.07;3.53;;;23.70;28.10;;;;;;5091879;28;20282;-53
2023/05/13 08:34:06;;;;;;;3.90;3.60;;;23.80;28.20;;;;;;5092236;28;20424;-51
2023/05/13 08:36:32;;;;;;;3.70;3.37;;;23.90;27.10;;;;;;5092210;28;20963;-53
2023/05/13 08:38:58;;;;;;;4.73;4.07;;;23.80;27.30;;;;;;5092230;28;20278;-51
2023/05/13 08:41:25;;;;;;;4.57;4.10;;;24.00;27.20;;;;;;5091722;28;20486;-51
2023/05/13 08:43:53;;;;;;;5.97;3.50;;;24.00;27.10;;;;;;5091948;28;20576;-53
2023/05/13 08:46:21;;;;;;;4.67;4.27;;;24.20;27.10;;;;;;5093543;28;20918;-52
2023/05/13 08:48:47;;;;;;;7.20;3.53;;;24.20;27.80;;;;;;5096070;28;20409;-52
2023/05/13 08:51:13;;;;;;;6.20;3.70;;;24.40;26.90;;;;;;5095715;28;20414;-51
2023/05/13 08:53:40;;;;;;;5.07;4.57;;;24.40;26.90;;;;;;5096175;28;20409;-52
2023/05/13 08:56:08;;;;;;;4.90;4.40;;;24.40;26.00;;;;;;5095942;28;20910;-52
2023/05/13 08:58:34;;;;;;;6.90;4.57;;;24.40;25.70;;;;;;5095921;28;20421;-54
2023/05/13 09:01:01;;;;;;;4.33;3.90;;;24.30;25.70;;;;;;5095599;28;20426;-56
2023/05/13 09:03:27;;;;;;;4.30;3.60;;;24.30;25.40;;;;;;5096624;28;20452;-54
2023/05/13 09:05:53;;;;;;;4.73;3.97;;;24.20;25.70;;;;;;5096647;28;20412;-56
2023/05/13 09:08:19;;;;;;;6.00;4.40;;;24.20;26.00;;;;;;5096970;28;20402;-56
2023/05/13 09:10:45;;;;;;;3.63;3.20;;;24.20;26.10;;;;;;5096354;28;20853;-54
2023/05/13 09:13:13;;;;;;;5.17;3.70;;;24.10;26.00;;;;;;5096396;28;20180;-54
2023/05/13 09:15:42;;;;;;;4.50;4.10;;;24.10;26.50;;;;;;5095414;28;20915;-53
2023/05/13 09:18:08;;;;;;;5.17;4.73;;;23.80;24.90;;;;;;5095720;28;20420;-51
2023/05/13 09:20:34;;;;;;;4.43;4.03;;;23.50;25.80;;;;;;5095032;28;20504;-52
2023/05/13 09:23:10;;;;;;;7.47;4.70;;;23.60;26.90;;;;;;5095550;28;20485;-51
2023/05/13 09:25:37;;;;;;;5.43;4.57;;;23.90;27.90;;;;;;5095116;28;20892;-51
2023/05/13 09:28:05;;;;;;;4.90;4.03;;;24.30;27.20;;;;;;5095387;28;20818;-53
2023/05/13 09:30:40;;;;;;;4.63;3.47;;;24.60;26.70;;;;;;5094906;28;20418;-50
2023/05/13 09:33:09;;;;;;;5.97;4.70;;;24.80;25.30;;;;;;5095147;28;20778;-53
2023/05/13 09:35:39;;;;;;;4.67;3.90;;;24.80;26.50;;;;;;5095044;28;20903;-51
2023/05/13 09:38:25;;;;;;;4.20;3.80;;;25.00;26.70;;;;;;5095284;28;20395;-51
2023/05/13 09:40:52;;;;;;;5.50;4.80;;;25.10;25.20;;;;;;5094703;28;20487;-53
2023/05/13 09:43:20;;;;;;;4.47;4.07;;;25.10;25.60;;;;;;5094875;28;20496;-50
2023/05/13 09:45:46;;;;;;;5.00;4.50;;;25.10;25.30;;;;;;5095206;28;20820;-54
2023/05/13 09:48:13;;;;;;;11.13;4.17;;;25.40;26.80;;;;;;5094857;28;20444;-51
2023/05/13 09:50:49;;;;;;;5.07;4.07;;;25.60;24.50;;;;;;5094413;28;20199;-54
2023/05/13 09:53:15;;;;;;;4.97;3.47;;;25.70;23.40;;;;;;5094804;28;20445;-51
2023/05/13 09:55:46;;;;;;;4.63;4.20;;;25.70;23.70;;;;;;5094990;28;20927;-51
2023/05/13 09:58:12;;;;;;;5.73;4.60;;;25.70;24.50;;;;;;5093473;28;20413;-53
2023/05/13 10:00:40;;;;;;;4.07;3.60;;;25.70;24.00;;;;;;5094398;28;20991;-51
2023/05/13 10:03:06;;;;;;;4.50;4.07;;;25.50;23.40;;;;;;5094497;28;20453;-53
2023/05/13 10:05:33;;;;;;;4.33;3.97;;;25.30;25.00;;;;;;5094760;28;20413;-50
2023/05/13 10:08:00;;;;;;;3.67;3.37;;;25.10;25.20;;;;;;5094484;28;20784;-51
2023/05/13 10:10:29;;;;;;;8.33;4.30;;;25.00;25.30;;;;;;5094066;28;20929;-51
2023/05/13 10:12:55;;;;;;;6.80;4.67;;;25.10;25.50;;;;;;5094293;28;20425;-51
2023/05/13 10:15:22;;;;;;;4.43;3.70;;;25.30;26.50;;;;;;5094624;28;20418;-54
2023/05/13 10:17:49;;;;;;;4.93;4.30;;;25.40;25.30;;;;;;5094130;28;20941;-53
2023/05/13 10:20:15;;;;;;;3.73;3.43;;;25.30;24.80;;;;;;5094145;28;20430;-52
2023/05/13 10:22:42;;;;;;;5.47;3.87;;;25.30;24.50;;;;;;5094241;28;20489;-54
2023/05/13 10:25:08;;;;;;;5.10;3.80;;;25.20;24.90;;;;;;5094290;28;20413;-51
2023/05/13 10:27:34;;;;;;;5.67;4.23;;;25.10;25.40;;;;;;5094172;28;20406;-52
2023/05/13 10:30:01;;;;;;;5.10;3.73;;;25.00;25.30;;;;;;5093773;28;20433;-53
2023/05/13 10:32:28;;;;;;;4.70;4.30;;;24.90;25.70;;;;;;5094187;28;20529;-53
2023/05/13 10:35:07;;;;;;;5.57;4.57;;;25.00;25.40;;;;;;5094160;28;20467;-51
2023/05/13 10:38:00;;;;;;;4.70;4.23;;;25.00;26.10;;;;;;5094241;28;20393;-53
2023/05/13 10:41:00;;;;;;;4.40;4.00;;;25.10;26.50;;;;;;5093584;28;20422;-51
2023/05/13 10:43:31;;;;;;;4.87;4.37;;;25.10;26.00;;;;;;5093742;28;20438;-51
2023/05/13 10:46:10;;;;;;;6.23;4.30;;;25.20;25.30;;;;;;5094141;28;20405;-54
2023/05/13 10:48:50;;;;;;;6.13;3.83;;;25.20;25.10;;;;;;5093695;28;20461;-51
2023/05/13 10:51:21;;;;;;;4.20;3.80;;;25.20;25.80;;;;;;5093370;28;20497;-52
2023/05/13 10:53:49;;;;;;;5.10;4.57;;;25.10;24.90;;;;;;5093691;28;20747;-51
2023/05/13 10:56:18;;;;;;;5.20;4.70;;;25.00;26.20;;;;;;5093670;28;20896;-53
2023/05/13 10:59:01;;;;;;;5.53;5.13;;;24.90;25.70;;;;;;5093443;28;20399;-54
2023/05/13 11:01:29;;;;;;;6.90;4.23;;;24.80;26.50;;;;;;5093066;28;20413;-52
2023/05/13 11:04:01;;;;;;;5.70;4.57;;;24.80;26.30;;;;;;5093418;28;20406;-53
2023/05/13 11:06:38;;;;;;;5.43;3.83;;;24.70;26.50;;;;;;5093345;28;20481;-51
2023/05/13 11:09:12;;;;;;;4.90;4.40;;;24.50;26.20;;;;;;5092771;28;20406;-54
2023/05/13 11:11:38;;;;;;;7.93;4.70;;;24.30;26.60;;;;;;5093244;28;20501;-52
2023/05/13 11:14:17;;;;;;;7.60;5.93;;;24.00;30.10;;;;;;5093164;28;20413;-51
2023/05/13 11:16:58;;;;;;;10.27;6.93;;;23.60;32.50;;;;;;5093431;28;20777;-54
2023/05/13 11:19:32;;;;;;;6.13;5.43;;;23.20;34.60;;;;;;5093000;28;20741;-53
2023/05/13 11:22:19;;;;;;;6.13;5.33;;;23.00;36.30;;;;;;5092880;28;21050;-53
2023/05/13 11:25:01;;;;;;;6.10;5.60;;;22.80;36.90;;;;;;5092168;28;20406;-54
2023/05/13 11:27:27;;;;;;;6.33;5.20;;;22.70;36.70;;;;;;5086824;28;20394;-52
2023/05/13 11:29:55;;;;;;;5.60;5.10;;;22.50;36.80;;;;;;5092926;28;20954;-52
2023/05/13 11:32:51;;;;;;;4.80;4.30;;;22.40;37.20;;;;;;5092869;28;20172;-54
2023/05/13 11:35:23;;;;;;;7.20;4.70;;;22.40;38.30;;;;;;5093037;28;20459;-50
2023/05/13 11:37:49;;;;;;;5.60;5.10;;;22.40;38.10;;;;;;5092901;28;20434;-51
2023/05/13 11:40:26;;;;;;;5.40;5.00;;;22.40;37.20;;;;;;5092419;28;20504;-54
2023/05/13 11:42:52;;;;;;;10.00;6.03;;;22.50;38.10;;;;;;5092615;28;20495;-53
2023/05/13 11:45:20;;;;;;;6.13;5.53;;;22.50;38.40;;;;;;5092525;28;20398;-57
2023/05/13 11:47:45;;;;;;;5.43;5.03;;;22.60;39.20;;;;;;5092691;28;20406;-55
2023/05/13 11:50:22;;;;;;;5.40;4.90;;;22.60;38.60;;;;;;5092289;28;20833;-53
2023/05/13 11:52:53;;;;;;;5.47;4.97;;;22.70;38.50;;;;;;5092743;28;20560;-54
2023/05/13 11:55:26;;;;;;;6.67;6.03;;;22.80;38.40;;;;;;5092443;28;20511;-57
2023/05/13 11:57:52;;;;;;;4.50;3.63;;;22.90;37.80;;;;;;5092297;28;20410;-55
2023/05/13 12:00:30;;;;;;;5.07;4.67;;;23.00;35.40;;;;;;5092087;28;20938;-55
2023/05/13 12:02:56;;;;;;;4.67;4.10;;;23.10;35.20;;;;;;5092258;28;20444;-53
2023/05/13 12:05:23;;;;;;;4.63;4.07;;;23.20;33.70;;;;;;5092465;28;20402;-53
2023/05/13 12:07:49;;;;;;;3.70;3.20;;;23.20;30.80;;;;;;5092322;28;20405;-55
2023/05/13 12:10:15;;;;;;;3.70;3.30;;;23.00;29.50;;;;;;5091864;28;20490;-54
2023/05/13 12:12:44;;;;;;;5.13;3.00;;;23.00;29.30;;;;;;5092341;28;20410;-51
2023/05/13 12:15:17;;;;;;;3.70;3.00;;;23.00;29.80;;;;;;5092572;28;20409;-52
2023/05/13 12:17:44;;;;;;;8.43;4.07;;;22.90;30.00;;;;;;5092682;28;20406;-54
2023/05/13 12:20:15;;;;;;;4.97;3.97;;;23.00;30.60;;;;;;5091813;28;20429;-52
2023/05/13 12:22:43;;;;;;;3.77;3.33;;;22.90;29.10;;;;;;5092144;28;20446;-52
2023/05/13 12:25:49;;;;;;;4.57;3.10;;;23.00;29.00;;;;;;5090867;28;20398;-54
2023/05/13 12:28:17;;;;;;;3.70;3.20;;;22.90;29.60;;;;;;5091216;28;20397;-54
2023/05/13 12:30:50;;;;;;;3.70;3.13;;;23.00;29.20;;;;;;5091727;28;20422;-52
2023/05/13 12:33:20;;;;;;;3.83;3.53;;;23.10;29.10;;;;;;5092335;28;20382;-52
2023/05/13 12:35:48;;;;;;;8.30;3.27;;;23.20;28.90;;;;;;5091740;28;20406;-54
2023/05/13 12:38:17;;;;;;;4.10;3.57;;;23.20;29.10;;;;;;5091823;28;20437;-51
2023/05/13 12:40:46;;;;;;;3.43;3.13;;;23.20;27.80;;;;;;5092362;28;20422;-51
2023/05/13 12:43:13;;;;;;;5.13;3.67;;;23.20;28.60;;;;;;5092382;28;20453;-52
2023/05/13 12:45:41;;;;;;;3.10;2.80;;;23.30;28.70;;;;;;5091895;28;21097;-53